sensor_id;sensor_type;location;lat;lon;timestamp;pressure;altitude;pressure_sealevel;temperature;humidity
20228;BME280;12195;55.790;37.572;2022-08-24T00:02:25;100935.98;;;24.34;43.21
20228;BME280;12195;55.790;37.572;2022-08-24T00:04:59;100941.19;;;24.35;42.98
20228;BME280;12195;55.790;37.572;2022-08-24T00:07:32;100938.67;;;24.34;43.14
20228;BME280;12195;55.790;37.572;2022-08-24T00:10:07;100948.69;;;24.32;43.15
20228;BME280;12195;55.790;37.572;2022-08-24T00:12:39;100943.31;;;24.32;43.20
20228;BME280;12195;55.790;37.572;2022-08-24T00:15:14;100948.69;;;24.32;43.22
20228;BME280;12195;55.790;37.572;2022-08-24T00:17:46;100949.13;;;24.27;43.34
20228;BME280;12195;55.790;37.572;2022-08-24T00:20:18;100941.63;;;24.21;43.78
20228;BME280;12195;55.790;37.572;2022-08-24T00:22:50;100944.71;;;24.17;43.89
20228;BME280;12195;55.790;37.572;2022-08-24T00:25:23;100944.88;;;24.15;43.95
20228;BME280;12195;55.790;37.572;2022-08-24T00:27:55;100946.28;;;24.10;44.20
20228;BME280;12195;55.790;37.572;2022-08-24T00:30:28;100952.05;;;24.05;44.41
20228;BME280;12195;55.790;37.572;2022-08-24T00:33:01;100958.55;;;24.03;44.57
20228;BME280;12195;55.790;37.572;2022-08-24T00:35:33;100945.53;;;23.98;44.78
20228;BME280;12195;55.790;37.572;2022-08-24T00:38:07;100955.17;;;24.01;44.53
20228;BME280;12195;55.790;37.572;2022-08-24T00:40:42;100954.45;;;23.99;44.74
20228;BME280;12195;55.790;37.572;2022-08-24T00:43:18;100963.06;;;24.02;44.54
20228;BME280;12195;55.790;37.572;2022-08-24T00:48:29;100956.42;;;24.06;44.56
20228;BME280;12195;55.790;37.572;2022-08-24T00:51:07;100955.01;;;24.02;44.88
20228;BME280;12195;55.790;37.572;2022-08-24T00:53:43;100954.17;;;24.02;44.87
20228;BME280;12195;55.790;37.572;2022-08-24T00:56:23;100960.81;;;23.98;44.86
20228;BME280;12195;55.790;37.572;2022-08-24T00:58:52;100960.08;;;23.96;44.96
20228;BME280;12195;55.790;37.572;2022-08-24T01:01:28;100966.98;;;23.89;45.27
20228;BME280;12195;55.790;37.572;2022-08-24T01:04:01;100949.30;;;23.77;45.84
20228;BME280;12195;55.790;37.572;2022-08-24T01:06:34;100970.62;;;23.88;44.13
20228;BME280;12195;55.790;37.572;2022-08-24T01:09:06;100960.52;;;23.61;46.47
20228;BME280;12195;55.790;37.572;2022-08-24T01:11:40;100964.02;;;23.52;46.91
20228;BME280;12195;55.790;37.572;2022-08-24T01:14:12;100972.75;;;23.45;47.24
20228;BME280;12195;55.790;37.572;2022-08-24T01:16:44;100957.34;;;23.37;47.62
20228;BME280;12195;55.790;37.572;2022-08-24T01:19:46;100960.67;;;23.30;47.99
20228;BME280;12195;55.790;37.572;2022-08-24T01:22:24;100964.89;;;23.23;48.13
20228;BME280;12195;55.790;37.572;2022-08-24T01:24:54;100963.42;;;23.19;48.32
20228;BME280;12195;55.790;37.572;2022-08-24T01:27:27;100963.81;;;23.14;48.33
20228;BME280;12195;55.790;37.572;2022-08-24T01:30:02;100964.20;;;23.10;48.60
20228;BME280;12195;55.790;37.572;2022-08-24T01:32:34;100969.84;;;23.07;48.66
20228;BME280;12195;55.790;37.572;2022-08-24T01:35:07;100964.99;;;23.01;48.78
20228;BME280;12195;55.790;37.572;2022-08-24T01:37:41;100968.92;;;22.97;49.10
20228;BME280;12195;55.790;37.572;2022-08-24T01:40:13;100974.41;;;22.95;49.05
20228;BME280;12195;55.790;37.572;2022-08-24T01:42:50;100964.93;;;22.91;49.14
20228;BME280;12195;55.790;37.572;2022-08-24T01:45:23;100973.25;;;22.88;49.44
20228;BME280;12195;55.790;37.572;2022-08-24T01:47:56;100968.98;;;22.86;49.41
20228;BME280;12195;55.790;37.572;2022-08-24T01:50:29;100968.65;;;22.79;49.56
20228;BME280;12195;55.790;37.572;2022-08-24T01:53:04;100965.65;;;22.73;49.75
20228;BME280;12195;55.790;37.572;2022-08-24T01:55:37;100972.12;;;22.70;49.73
20228;BME280;12195;55.790;37.572;2022-08-24T01:58:10;100972.24;;;22.69;49.91
20228;BME280;12195;55.790;37.572;2022-08-24T02:00:44;100973.36;;;22.66;50.20
20228;BME280;12195;55.790;37.572;2022-08-24T02:03:16;100972.37;;;22.67;50.07
20228;BME280;12195;55.790;37.572;2022-08-24T02:05:49;100972.52;;;22.66;50.05
20228;BME280;12195;55.790;37.572;2022-08-24T02:08:22;100968.13;;;22.65;50.26
20228;BME280;12195;55.790;37.572;2022-08-24T02:10:55;100972.90;;;22.61;50.21
20228;BME280;12195;55.790;37.572;2022-08-24T02:13:28;100975.45;;;22.63;50.09
20228;BME280;12195;55.790;37.572;2022-08-24T02:16:01;100979.00;;;22.63;50.07
20228;BME280;12195;55.790;37.572;2022-08-24T02:18:35;100976.89;;;22.67;49.59
20228;BME280;12195;55.790;37.572;2022-08-24T02:21:10;100984.40;;;22.73;49.46
20228;BME280;12195;55.790;37.572;2022-08-24T02:23:43;100977.09;;;22.75;49.54
20228;BME280;12195;55.790;37.572;2022-08-24T02:26:15;100983.44;;;22.74;49.67
20228;BME280;12195;55.790;37.572;2022-08-24T02:28:47;100982.45;;;22.75;49.61
20228;BME280;12195;55.790;37.572;2022-08-24T02:31:20;100982.33;;;22.76;49.43
20228;BME280;12195;55.790;37.572;2022-08-24T02:33:53;100979.66;;;22.76;49.33
20228;BME280;12195;55.790;37.572;2022-08-24T02:36:25;100981.22;;;22.79;49.53
20228;BME280;12195;55.790;37.572;2022-08-24T02:39:01;100992.52;;;22.82;49.56
20228;BME280;12195;55.790;37.572;2022-08-24T02:41:35;100979.98;;;22.83;49.57
20228;BME280;12195;55.790;37.572;2022-08-24T02:44:08;100979.56;;;22.87;49.50
20228;BME280;12195;55.790;37.572;2022-08-24T02:46:41;100979.89;;;22.94;49.15
20228;BME280;12195;55.790;37.572;2022-08-24T02:49:14;100984.17;;;22.96;49.30
20228;BME280;12195;55.790;37.572;2022-08-24T02:54:22;100992.41;;;23.04;48.98
20228;BME280;12195;55.790;37.572;2022-08-24T02:56:54;100993.11;;;23.06;48.95
20228;BME280;12195;55.790;37.572;2022-08-24T02:59:26;100989.31;;;23.09;48.72
20228;BME280;12195;55.790;37.572;2022-08-24T03:01:58;100989.75;;;23.14;48.69
20228;BME280;12195;55.790;37.572;2022-08-24T03:04:32;100989.37;;;23.18;48.69
20228;BME280;12195;55.790;37.572;2022-08-24T03:07:05;100995.34;;;23.22;48.79
20228;BME280;12195;55.790;37.572;2022-08-24T03:09:37;100993.27;;;23.25;48.65
20228;BME280;12195;55.790;37.572;2022-08-24T03:12:09;100993.84;;;23.29;48.91
20228;BME280;12195;55.790;37.572;2022-08-24T03:14:42;101003.44;;;23.31;48.89
20228;BME280;12195;55.790;37.572;2022-08-24T03:17:16;101005.73;;;23.36;48.56
20228;BME280;12195;55.790;37.572;2022-08-24T03:19:49;101003.63;;;23.39;48.39
20228;BME280;12195;55.790;37.572;2022-08-24T03:22:21;100999.70;;;23.43;48.39
20228;BME280;12195;55.790;37.572;2022-08-24T03:24:53;101006.48;;;23.47;48.07
20228;BME280;12195;55.790;37.572;2022-08-24T03:27:26;101004.38;;;23.51;47.82
20228;BME280;12195;55.790;37.572;2022-08-24T03:29:58;101007.80;;;23.53;47.85
20228;BME280;12195;55.790;37.572;2022-08-24T03:32:31;101010.22;;;23.56;47.84
20228;BME280;12195;55.790;37.572;2022-08-24T03:35:03;101005.55;;;23.58;47.62
20228;BME280;12195;55.790;37.572;2022-08-24T03:37:37;101008.53;;;23.64;47.08
20228;BME280;12195;55.790;37.572;2022-08-24T03:40:11;101003.34;;;23.72;47.10
20228;BME280;12195;55.790;37.572;2022-08-24T03:42:45;101013.39;;;23.80;46.54
20228;BME280;12195;55.790;37.572;2022-08-24T03:45:19;101013.73;;;23.86;46.49
20228;BME280;12195;55.790;37.572;2022-08-24T03:47:52;101020.29;;;24.03;45.97
20228;BME280;12195;55.790;37.572;2022-08-24T03:50:26;101011.67;;;23.99;46.25
20228;BME280;12195;55.790;37.572;2022-08-24T03:52:58;101019.59;;;24.10;46.13
20228;BME280;12195;55.790;37.572;2022-08-24T03:55:30;101011.99;;;24.25;45.89
20228;BME280;12195;55.790;37.572;2022-08-24T03:58:03;101010.34;;;24.43;45.38
20228;BME280;12195;55.790;37.572;2022-08-24T04:00:35;101008.77;;;24.59;45.18
20228;BME280;12195;55.790;37.572;2022-08-24T04:05:37;101016.15;;;25.05;44.29
20228;BME280;12195;55.790;37.572;2022-08-24T04:08:10;101010.77;;;25.05;44.02
20228;BME280;12195;55.790;37.572;2022-08-24T04:10:46;101009.62;;;25.17;43.75
20228;BME280;12195;55.790;37.572;2022-08-24T04:13:18;101011.18;;;25.29;43.51
20228;BME280;12195;55.790;37.572;2022-08-24T04:15:51;101008.47;;;25.39;43.30
20228;BME280;12195;55.790;37.572;2022-08-24T04:18:23;101011.82;;;25.50;42.59
20228;BME280;12195;55.790;37.572;2022-08-24T04:20:57;101007.23;;;25.60;42.09
20228;BME280;12195;55.790;37.572;2022-08-24T04:23:30;101011.44;;;25.72;41.78
20228;BME280;12195;55.790;37.572;2022-08-24T04:26:07;101014.95;;;25.82;41.41
20228;BME280;12195;55.790;37.572;2022-08-24T04:28:39;101023.81;;;25.92;41.30
20228;BME280;12195;55.790;37.572;2022-08-24T04:31:11;101015.87;;;26.00;41.08
20228;BME280;12195;55.790;37.572;2022-08-24T04:33:47;101017.66;;;26.09;40.79
20228;BME280;12195;55.790;37.572;2022-08-24T04:36:24;101024.14;;;26.16;40.61
20228;BME280;12195;55.790;37.572;2022-08-24T04:38:56;101016.69;;;26.28;40.30
20228;BME280;12195;55.790;37.572;2022-08-24T04:41:46;101025.42;;;26.39;39.88
20228;BME280;12195;55.790;37.572;2022-08-24T04:44:21;101016.94;;;26.52;39.29
20228;BME280;12195;55.790;37.572;2022-08-24T04:46:54;101023.98;;;26.62;39.16
20228;BME280;12195;55.790;37.572;2022-08-24T04:49:28;101013.98;;;26.72;38.95
20228;BME280;12195;55.790;37.572;2022-08-24T04:52:00;101018.14;;;26.84;38.70
20228;BME280;12195;55.790;37.572;2022-08-24T04:54:33;101018.36;;;26.91;38.38
20228;BME280;12195;55.790;37.572;2022-08-24T04:57:10;101018.42;;;26.99;38.39
20228;BME280;12195;55.790;37.572;2022-08-24T04:59:45;101010.70;;;27.04;38.22
20228;BME280;12195;55.790;37.572;2022-08-24T05:02:18;101013.31;;;27.13;38.12
20228;BME280;12195;55.790;37.572;2022-08-24T05:04:52;101011.53;;;27.22;37.57
20228;BME280;12195;55.790;37.572;2022-08-24T05:07:25;101013.46;;;27.29;37.54
20228;BME280;12195;55.790;37.572;2022-08-24T05:09:58;101011.64;;;27.38;37.15
20228;BME280;12195;55.790;37.572;2022-08-24T05:12:31;101010.16;;;27.43;36.91
20228;BME280;12195;55.790;37.572;2022-08-24T05:15:05;101008.69;;;27.49;37.07
20228;BME280;12195;55.790;37.572;2022-08-24T05:17:38;101007.71;;;27.58;36.81
20228;BME280;12195;55.790;37.572;2022-08-24T05:20:12;101022.67;;;27.78;37.19
20228;BME280;12195;55.790;37.572;2022-08-24T05:22:45;101017.74;;;27.73;36.52
20228;BME280;12195;55.790;37.572;2022-08-24T05:25:17;101016.05;;;27.72;36.39
20228;BME280;12195;55.790;37.572;2022-08-24T05:27:49;101020.40;;;27.65;36.30
20228;BME280;12195;55.790;37.572;2022-08-24T05:30:22;101011.78;;;27.62;36.20
20228;BME280;12195;55.790;37.572;2022-08-24T05:32:55;101014.64;;;27.60;36.28
20228;BME280;12195;55.790;37.572;2022-08-24T05:35:28;101017.89;;;27.64;35.84
20228;BME280;12195;55.790;37.572;2022-08-24T05:38:01;101010.97;;;27.69;35.41
20228;BME280;12195;55.790;37.572;2022-08-24T05:40:37;101005.61;;;27.77;35.02
20228;BME280;12195;55.790;37.572;2022-08-24T05:43:11;101012.80;;;27.86;34.73
20228;BME280;12195;55.790;37.572;2022-08-24T05:45:44;101019.59;;;28.06;35.25
20228;BME280;12195;55.790;37.572;2022-08-24T05:48:17;101011.30;;;28.00;34.24
20228;BME280;12195;55.790;37.572;2022-08-24T05:51:08;101015.05;;;28.07;34.35
20228;BME280;12195;55.790;37.572;2022-08-24T05:53:49;101009.52;;;28.16;34.23
20228;BME280;12195;55.790;37.572;2022-08-24T05:56:23;101010.56;;;28.23;34.18
20228;BME280;12195;55.790;37.572;2022-08-24T05:58:59;101013.61;;;28.28;33.76
20228;BME280;12195;55.790;37.572;2022-08-24T06:01:31;101016.75;;;28.65;33.51
20228;BME280;12195;55.790;37.572;2022-08-24T06:04:04;101005.73;;;29.39;32.09
20228;BME280;12195;55.790;37.572;2022-08-24T06:06:38;101007.64;;;30.24;30.89
20228;BME280;12195;55.790;37.572;2022-08-24T06:09:11;101012.20;;;30.84;30.17
20228;BME280;12195;55.790;37.572;2022-08-24T06:11:45;101012.61;;;31.33;29.72
20228;BME280;12195;55.790;37.572;2022-08-24T06:14:19;101015.34;;;31.62;29.07
20228;BME280;12195;55.790;37.572;2022-08-24T06:16:58;101014.40;;;31.69;28.94
20228;BME280;12195;55.790;37.572;2022-08-24T06:19:30;101009.29;;;31.89;28.58
20228;BME280;12195;55.790;37.572;2022-08-24T06:22:03;100999.46;;;32.38;28.04
20228;BME280;12195;55.790;37.572;2022-08-24T06:24:36;101008.52;;;32.80;27.43
20228;BME280;12195;55.790;37.572;2022-08-24T06:27:28;101012.14;;;33.15;26.81
20228;BME280;12195;55.790;37.572;2022-08-24T06:30:04;101006.70;;;33.36;26.06
20228;BME280;12195;55.790;37.572;2022-08-24T06:32:49;101008.58;;;33.36;26.24
20228;BME280;12195;55.790;37.572;2022-08-24T06:35:29;101005.78;;;33.57;24.94
20228;BME280;12195;55.790;37.572;2022-08-24T06:38:02;101002.14;;;33.77;24.91
20228;BME280;12195;55.790;37.572;2022-08-24T06:40:35;101002.33;;;34.16;23.84
20228;BME280;12195;55.790;37.572;2022-08-24T06:43:07;101013.91;;;34.25;23.95
20228;BME280;12195;55.790;37.572;2022-08-24T06:45:43;101012.44;;;34.22;24.06
20228;BME280;12195;55.790;37.572;2022-08-24T06:48:16;101003.94;;;34.51;23.28
20228;BME280;12195;55.790;37.572;2022-08-24T06:50:48;101023.17;;;35.29;24.58
20228;BME280;12195;55.790;37.572;2022-08-24T06:53:20;101006.97;;;35.34;22.16
20228;BME280;12195;55.790;37.572;2022-08-24T06:55:56;101006.43;;;35.89;21.97
20228;BME280;12195;55.790;37.572;2022-08-24T06:58:29;101006.73;;;36.25;21.51
20228;BME280;12195;55.790;37.572;2022-08-24T07:01:16;101003.06;;;36.75;21.03
20228;BME280;12195;55.790;37.572;2022-08-24T07:03:50;100999.14;;;37.20;20.45
20228;BME280;12195;55.790;37.572;2022-08-24T07:06:40;101007.55;;;37.86;19.21
20228;BME280;12195;55.790;37.572;2022-08-24T07:09:12;101004.71;;;38.58;18.32
20228;BME280;12195;55.790;37.572;2022-08-24T07:11:45;101011.84;;;38.89;17.76
20228;BME280;12195;55.790;37.572;2022-08-24T07:14:19;101003.67;;;39.12;17.22
20228;BME280;12195;55.790;37.572;2022-08-24T07:16:52;101001.41;;;38.68;17.61
20228;BME280;12195;55.790;37.572;2022-08-24T07:19:25;101002.34;;;37.60;18.59
20228;BME280;12195;55.790;37.572;2022-08-24T07:21:58;101001.14;;;36.45;19.81
20228;BME280;12195;55.790;37.572;2022-08-24T07:24:30;100998.98;;;35.33;21.01
20228;BME280;12195;55.790;37.572;2022-08-24T07:27:03;101000.55;;;34.43;21.86
20228;BME280;12195;55.790;37.572;2022-08-24T07:29:36;100995.41;;;33.73;22.53
20228;BME280;12195;55.790;37.572;2022-08-24T07:32:11;101003.53;;;33.11;23.13
20228;BME280;12195;55.790;37.572;2022-08-24T07:34:44;101000.39;;;32.66;23.87
20228;BME280;12195;55.790;37.572;2022-08-24T07:37:18;101004.42;;;32.34;24.51
20228;BME280;12195;55.790;37.572;2022-08-24T07:39:51;101006.63;;;32.10;24.86
20228;BME280;12195;55.790;37.572;2022-08-24T07:42:24;101011.83;;;31.90;25.34
20228;BME280;12195;55.790;37.572;2022-08-24T07:44:58;101007.10;;;31.70;24.74
20228;BME280;12195;55.790;37.572;2022-08-24T07:47:31;101010.28;;;31.59;24.98
20228;BME280;12195;55.790;37.572;2022-08-24T07:50:06;101006.91;;;31.42;25.61
20228;BME280;12195;55.790;37.572;2022-08-24T07:52:40;101000.25;;;31.30;25.95
20228;BME280;12195;55.790;37.572;2022-08-24T07:55:13;101001.65;;;31.26;26.22
20228;BME280;12195;55.790;37.572;2022-08-24T07:57:45;100999.30;;;31.23;25.49
20228;BME280;12195;55.790;37.572;2022-08-24T08:00:19;100994.02;;;31.22;25.29
20228;BME280;12195;55.790;37.572;2022-08-24T08:02:53;100994.87;;;31.22;25.18
20228;BME280;12195;55.790;37.572;2022-08-24T08:05:27;100992.33;;;31.21;24.94
20228;BME280;12195;55.790;37.572;2022-08-24T08:07:59;100992.00;;;31.24;25.07
20228;BME280;12195;55.790;37.572;2022-08-24T08:10:34;100996.58;;;31.23;24.94
20228;BME280;12195;55.790;37.572;2022-08-24T08:13:07;100985.58;;;31.17;24.57
20228;BME280;12195;55.790;37.572;2022-08-24T08:15:41;100989.98;;;31.18;25.81
20228;BME280;12195;55.790;37.572;2022-08-24T08:18:14;100985.05;;;31.21;26.05
20228;BME280;12195;55.790;37.572;2022-08-24T08:20:47;100992.47;;;31.27;25.69
20228;BME280;12195;55.790;37.572;2022-08-24T08:23:20;100983.49;;;31.27;24.93
20228;BME280;12195;55.790;37.572;2022-08-24T08:26:19;100989.75;;;31.27;24.84
20228;BME280;12195;55.790;37.572;2022-08-24T08:28:56;100980.38;;;31.30;25.11
20228;BME280;12195;55.790;37.572;2022-08-24T08:31:29;100990.52;;;31.36;25.31
20228;BME280;12195;55.790;37.572;2022-08-24T08:34:05;100982.66;;;31.41;24.53
20228;BME280;12195;55.790;37.572;2022-08-24T08:36:39;100985.64;;;31.46;24.54
20228;BME280;12195;55.790;37.572;2022-08-24T08:39:13;100974.59;;;31.47;23.20
20228;BME280;12195;55.790;37.572;2022-08-24T08:45:03;100980.48;;;31.51;24.64
20228;BME280;12195;55.790;37.572;2022-08-24T08:50:37;100961.09;;;31.54;24.87
20228;BME280;12195;55.790;37.572;2022-08-24T09:04:48;100959.14;;;31.62;24.03
20228;BME280;12195;55.790;37.572;2022-08-24T09:16:22;100961.59;;;31.57;22.20
20228;BME280;12195;55.790;37.572;2022-08-24T09:19:31;100970.38;;;31.59;21.95
20228;BME280;12195;55.790;37.572;2022-08-24T09:22:12;100957.25;;;31.63;22.20
20228;BME280;12195;55.790;37.572;2022-08-24T09:33:43;100950.82;;;31.78;22.91
20228;BME280;12195;55.790;37.572;2022-08-24T09:39:36;100952.69;;;31.78;20.38
20228;BME280;12195;55.790;37.572;2022-08-24T09:57:47;100950.49;;;31.88;20.98
20228;BME280;12195;55.790;37.572;2022-08-24T10:00:24;100952.84;;;31.91;20.62
20228;BME280;12195;55.790;37.572;2022-08-24T10:09:02;100944.69;;;31.91;21.07
20228;BME280;12195;55.790;37.572;2022-08-24T10:11:59;100949.08;;;31.92;20.61
20228;BME280;12195;55.790;37.572;2022-08-24T10:15:03;100938.31;;;31.98;20.82
20228;BME280;12195;55.790;37.572;2022-08-24T10:17:39;100930.72;;;31.94;20.56
20228;BME280;12195;55.790;37.572;2022-08-24T10:20:24;100950.02;;;31.99;20.91
20228;BME280;12195;55.790;37.572;2022-08-24T10:29:10;100939.62;;;32.02;20.52
20228;BME280;12195;55.790;37.572;2022-08-24T10:37:37;100931.72;;;32.07;20.11
20228;BME280;12195;55.790;37.572;2022-08-24T10:40:12;100930.48;;;32.10;19.82
20228;BME280;12195;55.790;37.572;2022-08-24T10:54:11;100929.38;;;32.04;19.77
20228;BME280;12195;55.790;37.572;2022-08-24T10:57:04;100921.66;;;32.08;19.98
20228;BME280;12195;55.790;37.572;2022-08-24T10:59:47;100933.21;;;32.10;19.69
20228;BME280;12195;55.790;37.572;2022-08-24T11:02:34;100921.03;;;32.06;19.63
20228;BME280;12195;55.790;37.572;2022-08-24T11:05:11;100915.59;;;32.06;19.85
20228;BME280;12195;55.790;37.572;2022-08-24T11:08:01;100920.66;;;32.09;19.97
20228;BME280;12195;55.790;37.572;2022-08-24T11:10:37;100920.44;;;32.10;20.33
20228;BME280;12195;55.790;37.572;2022-08-24T11:13:22;100909.30;;;32.05;20.25
20228;BME280;12195;55.790;37.572;2022-08-24T11:15:56;100913.51;;;32.08;20.40
20228;BME280;12195;55.790;37.572;2022-08-24T11:18:51;100907.31;;;32.14;20.26
20228;BME280;12195;55.790;37.572;2022-08-24T11:21:51;100901.87;;;32.14;20.13
20228;BME280;12195;55.790;37.572;2022-08-24T11:27:06;100895.08;;;32.24;19.78
20228;BME280;12195;55.790;37.572;2022-08-24T11:32:44;100893.84;;;32.27;19.73
20228;BME280;12195;55.790;37.572;2022-08-24T11:37:54;100888.56;;;32.40;19.84
20228;BME280;12195;55.790;37.572;2022-08-24T11:40:29;100893.09;;;32.54;19.25
20228;BME280;12195;55.790;37.572;2022-08-24T11:48:52;100897.41;;;32.69;19.04
20228;BME280;12195;55.790;37.572;2022-08-24T11:51:30;100886.08;;;32.66;19.13
20228;BME280;12195;55.790;37.572;2022-08-24T11:54:13;100891.77;;;32.71;19.16
20228;BME280;12195;55.790;37.572;2022-08-24T11:57:10;100890.48;;;32.67;19.06
20228;BME280;12195;55.790;37.572;2022-08-24T12:00:06;100883.41;;;32.72;19.31
20228;BME280;12195;55.790;37.572;2022-08-24T12:05:43;100874.71;;;32.83;19.04
20228;BME280;12195;55.790;37.572;2022-08-24T12:08:32;100875.06;;;33.01;18.76
20228;BME280;12195;55.790;37.572;2022-08-24T12:11:25;100866.34;;;33.19;18.62
20228;BME280;12195;55.790;37.572;2022-08-24T12:14:04;100876.06;;;33.75;18.07
20228;BME280;12195;55.790;37.572;2022-08-24T12:19:31;100865.80;;;36.03;16.26
20228;BME280;12195;55.790;37.572;2022-08-24T12:22:06;100860.77;;;37.77;14.45
20228;BME280;12195;55.790;37.572;2022-08-24T12:24:48;100855.29;;;39.17;13.56
20228;BME280;12195;55.790;37.572;2022-08-24T12:27:28;100847.82;;;40.69;12.45
20228;BME280;12195;55.790;37.572;2022-08-24T12:30:01;100850.89;;;42.18;11.51
20228;BME280;12195;55.790;37.572;2022-08-24T12:32:44;100849.92;;;43.54;10.70
20228;BME280;12195;55.790;37.572;2022-08-24T12:38:34;100842.08;;;44.52;9.90
20228;BME280;12195;55.790;37.572;2022-08-24T12:41:02;100848.17;;;44.49;9.98
20228;BME280;12195;55.790;37.572;2022-08-24T12:46:14;100850.68;;;44.26;9.99
20228;BME280;12195;55.790;37.572;2022-08-24T12:49:27;100842.92;;;44.38;9.87
20228;BME280;12195;55.790;37.572;2022-08-24T12:54:44;100839.27;;;44.83;9.65
20228;BME280;12195;55.790;37.572;2022-08-24T13:00:05;100836.26;;;44.64;9.93
20228;BME280;12195;55.790;37.572;2022-08-24T13:02:39;100831.50;;;44.04;10.00
20228;BME280;12195;55.790;37.572;2022-08-24T13:05:17;100838.13;;;43.83;10.13
20228;BME280;12195;55.790;37.572;2022-08-24T13:07:52;100833.72;;;43.26;10.63
20228;BME280;12195;55.790;37.572;2022-08-24T13:13:08;100824.98;;;41.50;11.59
20228;BME280;12195;55.790;37.572;2022-08-24T13:15:55;100831.45;;;40.79;11.89
20228;BME280;12195;55.790;37.572;2022-08-24T13:19:08;100825.41;;;40.82;12.05
20228;BME280;12195;55.790;37.572;2022-08-24T13:21:38;100829.44;;;41.51;11.56
20228;BME280;12195;55.790;37.572;2022-08-24T13:30:02;100811.73;;;46.80;8.56
20228;BME280;12195;55.790;37.572;2022-08-24T13:32:36;100802.02;;;48.36;7.85
20228;BME280;12195;55.790;37.572;2022-08-24T13:38:30;100802.11;;;49.58;7.31
20228;BME280;12195;55.790;37.572;2022-08-24T13:41:44;100796.61;;;49.88;7.17
20228;BME280;12195;55.790;37.572;2022-08-24T13:45:13;100669.80;;;50.15;7.15
20228;BME280;12195;55.790;37.572;2022-08-24T13:53:03;100790.59;;;51.64;6.48
20228;BME280;12195;55.790;37.572;2022-08-24T13:58:33;100791.70;;;51.29;6.70
20228;BME280;12195;55.790;37.572;2022-08-24T14:18:21;100788.43;;;51.87;6.70
20228;BME280;12195;55.790;37.572;2022-08-24T14:40:31;100780.20;;;51.82;6.02
20228;BME280;12195;55.790;37.572;2022-08-24T14:43:29;100763.05;;;51.58;6.33
20228;BME280;12195;55.790;37.572;2022-08-24T14:46:15;100763.03;;;51.49;6.24
20228;BME280;12195;55.790;37.572;2022-08-24T14:52:16;100766.42;;;51.12;6.33
20228;BME280;12195;55.790;37.572;2022-08-24T14:55:18;100752.92;;;49.21;7.05
20228;BME280;12195;55.790;37.572;2022-08-24T15:09:09;100757.31;;;38.88;13.53
20228;BME280;12195;55.790;37.572;2022-08-24T15:11:41;100763.91;;;37.88;14.25
20228;BME280;12195;55.790;37.572;2022-08-24T15:14:28;100763.16;;;37.04;14.63
20228;BME280;12195;55.790;37.572;2022-08-24T15:17:09;100757.14;;;36.35;15.40
20228;BME280;12195;55.790;37.572;2022-08-24T15:19:48;100758.45;;;35.77;15.67
20228;BME280;12195;55.790;37.572;2022-08-24T15:22:53;100763.30;;;35.24;15.83
20228;BME280;12195;55.790;37.572;2022-08-24T15:25:03;100766.20;;;34.85;16.63
20228;BME280;12195;55.790;37.572;2022-08-24T15:27:53;100765.82;;;34.49;16.88
20228;BME280;12195;55.790;37.572;2022-08-24T15:30:31;100765.19;;;34.15;16.79
20228;BME280;12195;55.790;37.572;2022-08-24T15:33:13;100759.90;;;33.81;17.41
20228;BME280;12195;55.790;37.572;2022-08-24T15:35:50;100764.06;;;33.57;17.52
20228;BME280;12195;55.790;37.572;2022-08-24T15:38:32;100769.61;;;33.29;17.96
20228;BME280;12195;55.790;37.572;2022-08-24T15:41:29;100764.03;;;33.03;18.11
20228;BME280;12195;55.790;37.572;2022-08-24T15:44:07;100758.24;;;32.79;19.05
20228;BME280;12195;55.790;37.572;2022-08-24T15:46:46;100758.91;;;32.53;19.50
20228;BME280;12195;55.790;37.572;2022-08-24T15:49:22;100757.94;;;32.33;19.04
20228;BME280;12195;55.790;37.572;2022-08-24T15:52:02;100768.69;;;32.20;19.39
20228;BME280;12195;55.790;37.572;2022-08-24T15:54:42;100769.34;;;32.01;19.77
20228;BME280;12195;55.790;37.572;2022-08-24T15:57:25;100766.52;;;31.88;19.80
20228;BME280;12195;55.790;37.572;2022-08-24T16:00:14;100764.69;;;31.74;20.07
20228;BME280;12195;55.790;37.572;2022-08-24T16:02:47;100766.67;;;31.66;21.68
20228;BME280;12195;55.790;37.572;2022-08-24T16:10:45;100767.81;;;31.36;20.59
20228;BME280;12195;55.790;37.572;2022-08-24T16:13:27;100766.03;;;31.28;20.70
20228;BME280;12195;55.790;37.572;2022-08-24T16:16:07;100766.70;;;31.16;20.99
20228;BME280;12195;55.790;37.572;2022-08-24T16:18:59;100768.85;;;31.06;20.99
20228;BME280;12195;55.790;37.572;2022-08-24T16:21:37;100767.95;;;30.99;21.15
20228;BME280;12195;55.790;37.572;2022-08-24T16:24:35;100766.92;;;30.85;21.30
20228;BME280;12195;55.790;37.572;2022-08-24T16:32:21;100773.80;;;30.44;21.91
20228;BME280;12195;55.790;37.572;2022-08-24T16:37:36;100775.63;;;30.29;22.32
20228;BME280;12195;55.790;37.572;2022-08-24T16:40:09;100777.59;;;30.21;22.29
20228;BME280;12195;55.790;37.572;2022-08-24T16:42:42;100782.56;;;30.09;22.61
20228;BME280;12195;55.790;37.572;2022-08-24T16:45:17;100779.09;;;30.01;22.93
20228;BME280;12195;55.790;37.572;2022-08-24T16:47:50;100785.72;;;29.98;23.18
20228;BME280;12195;55.790;37.572;2022-08-24T16:50:23;100787.29;;;29.93;23.37
20228;BME280;12195;55.790;37.572;2022-08-24T16:52:57;100784.64;;;29.85;23.52
20228;BME280;12195;55.790;37.572;2022-08-24T16:55:31;100786.14;;;29.87;23.68
20228;BME280;12195;55.790;37.572;2022-08-24T16:58:04;100781.64;;;29.80;23.77